Aktualne dane pomiarowe

Uwaga, wersja testowa! Automatyczne pobieranie danych za pomocą narzędzi lub skryptów to umożliwiających jest zabronione.

Dane meteo z obszaru Polski uzyskane na podstawie depesz SYNOP pobieranych co godzinę z NWS. Najedź myszką na symbol przedstawiony w tabeli, aby uzyskać informacje co do jego znaczenia. Prosimy pamiętać, że to testowa wersja strony, która jeszcze nie jest ukończona. Stworzono również jest krótki FAQ dotyczący korzystania z tej podstrony Anomalie temperatury w chwili obecnej odniesione są do okresu referencyjnego 1951-2016. Okres ten będzie później zmieniony na 1981-2010. Kliknij ikonę aby pobrać plik CSV. Kliknij ikonę aby wygenerować mapę synoptyczną dla danego terminu.

Wybierz Datę:    

        

Łódź (12465)

Dane terminowe dla wybranej stacji. Kliknij datę, aby otrzymać dane z tego terminu dla wszystkich stacji.

TemperaturaZachmurzenieWiatrCiśnienieOpadyPogoda
 Data t td wb tx tn tg rh  Nt Nl Cl Cm Ch ws wd g1 g2 wx mslp ppp ch 24h 12h t ww ww w1 w2  
2019-05-06 23:00:00 5.4 -0.9 2.2--- 6420.0wx-wxwx3wx--31015.3 993.0 0.0---------
2019-05-06 22:00:00 6.3 -0.2 2.9--- 6320.0wxwxwxwx2wx--21015.2 993.0 0.3---------
2019-05-06 21:00:00 6.1 0.0 2.9--- 6520.0wxwxwxwx2wx--21015.5 993.2 1.0---------
2019-05-06 20:00:00 7.5 -0.7 3.4--- 5620.0wx-wxwx2wx--21015.1 993.0 1.3---------
2019-05-06 19:00:00 9.2 -1.5 4.2--- 4720.0wx-wxwx2wx---1014.7 992.7 1.3---------
2019-05-06 18:00:00 10.7 -2.7 4.7 12.9 7.0- 3920.0wxwxwxwxwx3wx-1031014.1 992.2 0.8- 0.012------
2019-05-06 17:00:00 11.6 -3.4 5.0--- 3520.0wxwxwxwxwx4wx--41013.5 991.7 0.3---------
2019-05-06 16:00:00 11.9 -3.5 5.1--- 3420.0wxwxwxwxwx4wx--41013.2 991.4 0.0---------
2019-05-06 15:00:00 12.1 -4.5 5.0--- 3120.0wxwxwxwxwx5wx-1051013.1 991.4 -0.6---------
2019-05-06 14:00:00 12.1 -3.3 5.3--- 3420.0wxwxwxwxwx5wx-1051013.1 991.4 -1.1---------
2019-05-06 13:00:00 12.7 -2.8 5.7--- 3420.0wxwxwxwxwx4wx-941013.1 991.4 -1.2---------
2019-05-06 12:00:00 11.9 -3.9 5.0--- 3320.0wxwxwxwxwx5wx-851013.8 992.0 -0.9- 0.06------
2019-05-06 11:00:00 11.6 -2.3 5.3--- 3820.0wxwxwxwx3wx--31014.3 992.5 -0.4---------
2019-05-06 10:00:00 10.1 -4.0 4.0--- 3720.0wxwxwxwx4wx--41014.5 992.6 -0.2---------
2019-05-06 09:00:00 9.5 -2.2 4.1--- 4420.0wxwxwxwx4wx--41014.9 992.9 0.0---------
2019-05-06 08:00:00 8.8 -3.8 3.3--- 4120.0wx-wx4wx--41014.9 992.9 0.1---------
2019-05-06 07:00:00 8.2 -4.3 2.8--- 4120.0wx-wx5wx--51014.9 992.8 0.1---------
2019-05-06 06:00:00 7.0 -3.6 2.3 9.4 0.6 -1 4720.0wx-wx2wx--21015.1 992.9 0.4- 0.012----- 4.2
2019-05-06 05:00:00 4.3 0.6 2.2--- 7720.0wx-wx0---01015.2 992.8 0.1---------
2019-05-06 04:00:00 2.0 0.2 0.9--- 8820.0wx-wxwx1wx--11015.3 992.7 -0.1---------
2019-05-06 03:00:00 1.7 0.2 0.7--- 9020.0wx-wx1wx--11015.1 992.5 -0.2---------
2019-05-06 02:00:00 1.1 0.2 0.5--- 9415.0wx-wx0---01015.4 992.7 0.0---------
2019-05-06 01:00:00 0.8 -0.1 0.2--- 9411.0wx-wxwx1wx--11015.5 992.8 0.1---------
2019-05-06 00:00:00 1.4 0.1 0.5--- 9120.0wx-wxwx1wx--11015.3 992.7 0.1- 0.06------
2019-05-05 23:00:00 2.2 0.7 1.2--- 9020.0wx-wxwx0---01015.3 992.7 0.1---------
2019-05-05 22:00:00 3.7 0.6 1.9--- 8020.0wx-wxwx1wx--11015.1 992.7 0.2---------
2019-05-05 21:00:00 6.1 -0.9 2.6--- 6120.0wx-wxwx1wx--11014.8 992.6 0.5---------
2019-05-05 20:00:00 7.4 -1.6 3.1--- 5320.0wx-wxwx1wx--11014.7 992.6 0.5---------
2019-05-05 19:00:00 8.7 -2.0 3.7--- 4720.0wx-wxwx3wx--31014.5 992.5 0.6---------
2019-05-05 18:00:00 9.3 -1.7 4.2 10.8 4.2- 4620.0wx-wx3wx-1031014.1 992.1 0.4- 0.012------
2019-05-05 17:00:00 9.7 -1.7 4.4--- 4520.0wxwxwxwx4wx--41014.0 992.1 0.5---------
2019-05-05 16:00:00 9.8 -1.9 4.4--- 4420.0wxwxwxwx5wx-1051013.8 991.9 0.3---------
2019-05-05 15:00:00 10.3 -0.8 5.0--- 4620.0wxwxwxwx5wx-1051013.6 991.7 0.1---------
2019-05-05 14:00:00 10.1 -2.3 4.4--- 4220.0wxwxwxwx5wx-1051013.5 991.6 0.3---------
2019-05-05 13:00:00 10.6 -0.3 5.3--- 4720.0wxwxwxwx5wx--51013.5 991.6 0.5---------
2019-05-05 12:00:00 10.2 -0.3 5.1--- 4820.0wxwxwxwx5wx--51013.5 991.6 0.4- 0.06------
2019-05-05 11:00:00 9.5 -0.1 4.8--- 5120.0wxwxwxwx6wx---1013.2 991.3 0.4---------
2019-05-05 10:00:00 8.2 -0.1 4.0--- 5620.0wxwxwxwx5wx--51013.1 991.1 0.6---------
2019-05-05 09:00:00 7.7 0.4 3.9--- 6020.0wxwxwxwx5wx--51013.3 991.2 1.2---------
2019-05-05 08:00:00 6.3 1.0 3.4--- 6920.0wxwxwxwx5wx--51013.1 990.9 1.4---------
2019-05-05 07:00:00 5.2 1.3 3.0--- 7620.0wxwxwxwx4wx--41012.8 990.5 1.8---------
2019-05-05 06:00:00 4.2 1.7 2.7 12.7 2.4 2 8420.0wxwxwx4wx-1041012.3 990.0 2.0 0.3 0.312wx-w1- 4.4
2019-05-05 05:00:00 3.4 1.8 2.4--- 8920.0wxwxwx3wx--31011.9 989.5 2.3---------
2019-05-05 04:00:00 3.1 1.6 2.1--- 9020.0wxwxwx4wx--41011.1 988.7 2.0---------
2019-05-05 03:00:00 3.0 1.5 2.0--- 9020.0wxwxwx3wx-1031010.4 988.0 1.7---wx-w1--
2019-05-05 02:00:00 2.7 1.7 2.0--- 9320.0wxwxwx3wx---1009.6 987.2 1.6---------
2019-05-05 01:00:00 2.4 1.4 1.7--- 9320.0wxwxwx3wx---1009.1 986.7 1.5---wx---
2019-05-05 00:00:00 2.6 1.6 1.9--- 9320.0wxwxwx4wx-1041008.7 986.3 1.7- 0.36wx-w1w2--
34.3 ms

 

Print Friendly, PDF & Email